sensor_id;sensor_type;location;lat;lon;timestamp;pressure;altitude;pressure_sealevel;temperature;humidity
78309;BME280;67566;42.022;21.356;2023-06-10T00:01:27;98210.59;;;19.08;71.81
78309;BME280;67566;42.022;21.356;2023-06-10T00:03:53;98208.59;;;19.01;72.51
78309;BME280;67566;42.022;21.356;2023-06-10T00:06:19;98208.91;;;18.96;72.69
78309;BME280;67566;42.022;21.356;2023-06-10T00:08:47;98208.06;;;18.92;72.55
78309;BME280;67566;42.022;21.356;2023-06-10T00:11:12;98210.66;;;18.85;72.27
78309;BME280;67566;42.022;21.356;2023-06-10T00:13:38;98215.94;;;18.78;72.29
78309;BME280;67566;42.022;21.356;2023-06-10T00:16:03;98203.94;;;18.72;72.65
78309;BME280;67566;42.022;21.356;2023-06-10T00:18:29;98204.66;;;18.68;72.09
78309;BME280;67566;42.022;21.356;2023-06-10T00:20:57;98193.03;;;18.64;72.52
78309;BME280;67566;42.022;21.356;2023-06-10T00:23:22;98202.25;;;18.63;72.13
78309;BME280;67566;42.022;21.356;2023-06-10T00:25:50;98195.31;;;18.62;72.27
78309;BME280;67566;42.022;21.356;2023-06-10T00:28:15;98198.75;;;18.59;72.91
78309;BME280;67566;42.022;21.356;2023-06-10T00:30:41;98201.44;;;18.59;72.68
78309;BME280;67566;42.022;21.356;2023-06-10T00:33:06;98203.34;;;18.59;72.74
78309;BME280;67566;42.022;21.356;2023-06-10T00:35:32;98198.03;;;18.66;72.97
78309;BME280;67566;42.022;21.356;2023-06-10T00:37:57;98193.91;;;18.72;73.06
78309;BME280;67566;42.022;21.356;2023-06-10T00:40:23;98196.66;;;18.76;72.77
78309;BME280;67566;42.022;21.356;2023-06-10T00:42:48;98192.44;;;18.78;73.27
78309;BME280;67566;42.022;21.356;2023-06-10T00:45:14;98192.44;;;18.78;72.98
78309;BME280;67566;42.022;21.356;2023-06-10T00:47:39;98191.25;;;18.76;73.67
78309;BME280;67566;42.022;21.356;2023-06-10T00:50:05;98190.13;;;18.77;73.79
78309;BME280;67566;42.022;21.356;2023-06-10T00:52:31;98188.56;;;18.76;72.96
78309;BME280;67566;42.022;21.356;2023-06-10T00:54:57;98180.38;;;18.68;73.14
78309;BME280;67566;42.022;21.356;2023-06-10T00:57:24;98183.47;;;18.71;72.69
78309;BME280;67566;42.022;21.356;2023-06-10T00:59:51;98179.88;;;18.59;72.59
78309;BME280;67566;42.022;21.356;2023-06-10T01:02:16;98184.41;;;18.55;73.02
78309;BME280;67566;42.022;21.356;2023-06-10T01:04:42;98185.53;;;18.51;72.89
78309;BME280;67566;42.022;21.356;2023-06-10T01:07:26;98183.91;;;18.46;73.11
78309;BME280;67566;42.022;21.356;2023-06-10T01:10:08;98183.75;;;18.35;72.89
78309;BME280;67566;42.022;21.356;2023-06-10T01:12:55;98186.41;;;18.32;72.81
78309;BME280;67566;42.022;21.356;2023-06-10T01:15:21;98184.00;;;18.26;73.35
78309;BME280;67566;42.022;21.356;2023-06-10T01:18:02;98183.16;;;18.22;72.58
78309;BME280;67566;42.022;21.356;2023-06-10T01:20:30;98178.91;;;18.21;72.95
78309;BME280;67566;42.022;21.356;2023-06-10T01:23:01;98174.72;;;18.24;72.76
78309;BME280;67566;42.022;21.356;2023-06-10T01:25:28;98175.50;;;18.24;73.45
78309;BME280;67566;42.022;21.356;2023-06-10T01:30:54;98167.53;;;18.32;73.96
78309;BME280;67566;42.022;21.356;2023-06-10T01:33:27;98163.69;;;18.33;73.55
78309;BME280;67566;42.022;21.356;2023-06-10T01:35:53;98165.97;;;18.30;73.76
78309;BME280;67566;42.022;21.356;2023-06-10T01:38:21;98158.19;;;18.25;73.76
78309;BME280;67566;42.022;21.356;2023-06-10T01:40:49;98157.00;;;18.23;74.29
78309;BME280;67566;42.022;21.356;2023-06-10T01:43:17;98156.94;;;18.19;74.33
78309;BME280;67566;42.022;21.356;2023-06-10T01:45:42;98160.41;;;18.20;73.23
78309;BME280;67566;42.022;21.356;2023-06-10T01:48:08;98160.00;;;18.18;73.80
78309;BME280;67566;42.022;21.356;2023-06-10T01:50:33;98153.41;;;18.15;73.81
78309;BME280;67566;42.022;21.356;2023-06-10T01:52:59;98158.03;;;18.15;73.71
78309;BME280;67566;42.022;21.356;2023-06-10T01:55:25;98159.94;;;18.14;73.83
78309;BME280;67566;42.022;21.356;2023-06-10T01:57:50;98170.38;;;18.16;73.69
78309;BME280;67566;42.022;21.356;2023-06-10T02:00:17;98168.63;;;18.04;73.43
78309;BME280;67566;42.022;21.356;2023-06-10T02:02:42;98168.88;;;17.95;73.56
78309;BME280;67566;42.022;21.356;2023-06-10T02:05:08;98174.97;;;17.92;73.38
78309;BME280;67566;42.022;21.356;2023-06-10T02:07:33;98181.81;;;17.86;73.50
78309;BME280;67566;42.022;21.356;2023-06-10T02:09:59;98177.81;;;17.80;74.01
78309;BME280;67566;42.022;21.356;2023-06-10T02:12:25;98176.56;;;17.73;74.07
78309;BME280;67566;42.022;21.356;2023-06-10T02:14:50;98182.59;;;17.67;74.33
78309;BME280;67566;42.022;21.356;2023-06-10T02:17:16;98180.22;;;17.62;74.87
78309;BME280;67566;42.022;21.356;2023-06-10T02:19:41;98181.28;;;17.57;74.38
78309;BME280;67566;42.022;21.356;2023-06-10T02:22:08;98185.88;;;17.57;74.37
78309;BME280;67566;42.022;21.356;2023-06-10T02:24:35;98181.22;;;17.53;75.12
78309;BME280;67566;42.022;21.356;2023-06-10T02:27:01;98179.97;;;17.47;74.32
78309;BME280;67566;42.022;21.356;2023-06-10T02:29:27;98184.81;;;17.42;75.03
78309;BME280;67566;42.022;21.356;2023-06-10T02:31:52;98177.72;;;17.30;75.47
78309;BME280;67566;42.022;21.356;2023-06-10T02:34:18;98186.47;;;17.27;75.27
78309;BME280;67566;42.022;21.356;2023-06-10T02:36:44;98184.22;;;17.29;75.00
78309;BME280;67566;42.022;21.356;2023-06-10T02:39:09;98181.53;;;17.29;75.41
78309;BME280;67566;42.022;21.356;2023-06-10T02:41:35;98182.00;;;17.34;75.00
78309;BME280;67566;42.022;21.356;2023-06-10T02:44:00;98181.59;;;17.32;75.06
78309;BME280;67566;42.022;21.356;2023-06-10T02:46:26;98180.41;;;17.30;75.60
78309;BME280;67566;42.022;21.356;2023-06-10T02:48:54;98184.50;;;17.24;76.05
78309;BME280;67566;42.022;21.356;2023-06-10T02:51:19;98188.22;;;17.19;75.70
78309;BME280;67566;42.022;21.356;2023-06-10T02:53:46;98187.03;;;17.16;75.55
78309;BME280;67566;42.022;21.356;2023-06-10T02:56:11;98184.44;;;17.20;75.62
78309;BME280;67566;42.022;21.356;2023-06-10T02:58:38;98196.81;;;17.25;75.16
78309;BME280;67566;42.022;21.356;2023-06-10T03:01:03;98189.81;;;17.20;75.83
78309;BME280;67566;42.022;21.356;2023-06-10T03:03:28;98195.88;;;17.17;75.58
78309;BME280;67566;42.022;21.356;2023-06-10T03:05:55;98202.69;;;17.11;76.54
78309;BME280;67566;42.022;21.356;2023-06-10T03:08:22;98194.91;;;17.06;76.43
78309;BME280;67566;42.022;21.356;2023-06-10T03:10:47;98199.47;;;17.05;76.25
78309;BME280;67566;42.022;21.356;2023-06-10T03:13:12;98197.25;;;17.07;75.67
78309;BME280;67566;42.022;21.356;2023-06-10T03:15:39;98198.78;;;17.08;75.46
78309;BME280;67566;42.022;21.356;2023-06-10T03:18:06;98203.66;;;17.03;76.09
78309;BME280;67566;42.022;21.356;2023-06-10T03:20:32;98195.94;;;17.01;75.60
78309;BME280;67566;42.022;21.356;2023-06-10T03:23:04;98197.44;;;16.98;75.87
78309;BME280;67566;42.022;21.356;2023-06-10T03:25:31;98199.69;;;16.96;75.61
78309;BME280;67566;42.022;21.356;2023-06-10T03:27:57;98207.06;;;16.99;76.03
78309;BME280;67566;42.022;21.356;2023-06-10T03:30:22;98208.97;;;16.99;76.32
78309;BME280;67566;42.022;21.356;2023-06-10T03:32:48;98203.31;;;17.04;75.71
78309;BME280;67566;42.022;21.356;2023-06-10T03:35:14;98204.59;;;17.10;76.35
78309;BME280;67566;42.022;21.356;2023-06-10T03:37:40;98204.31;;;17.15;76.49
78309;BME280;67566;42.022;21.356;2023-06-10T03:40:07;98199.00;;;17.19;75.84
78309;BME280;67566;42.022;21.356;2023-06-10T03:42:34;98204.50;;;17.26;75.37
78309;BME280;67566;42.022;21.356;2023-06-10T03:45:00;98202.34;;;17.32;76.15
78309;BME280;67566;42.022;21.356;2023-06-10T03:47:26;98203.03;;;17.29;75.79
78309;BME280;67566;42.022;21.356;2023-06-10T03:49:51;98205.66;;;17.25;75.39
78309;BME280;67566;42.022;21.356;2023-06-10T03:52:18;98198.09;;;17.31;76.26
78309;BME280;67566;42.022;21.356;2023-06-10T03:54:43;98200.06;;;17.34;76.24
78309;BME280;67566;42.022;21.356;2023-06-10T03:57:09;98202.06;;;17.37;76.22
78309;BME280;67566;42.022;21.356;2023-06-10T03:59:34;98203.25;;;17.40;76.54
78309;BME280;67566;42.022;21.356;2023-06-10T04:02:00;98200.00;;;17.50;76.51
78309;BME280;67566;42.022;21.356;2023-06-10T04:04:26;98200.25;;;17.64;76.44
78309;BME280;67566;42.022;21.356;2023-06-10T04:06:52;98197.38;;;17.77;76.16
78309;BME280;67566;42.022;21.356;2023-06-10T04:09:18;98196.06;;;17.86;75.89
78309;BME280;67566;42.022;21.356;2023-06-10T04:11:43;98200.84;;;17.97;76.48
78309;BME280;67566;42.022;21.356;2023-06-10T04:14:09;98195.22;;;18.05;75.77
78309;BME280;67566;42.022;21.356;2023-06-10T04:16:34;98206.88;;;18.13;76.17
78309;BME280;67566;42.022;21.356;2023-06-10T04:19:00;98209.69;;;18.20;76.33
78309;BME280;67566;42.022;21.356;2023-06-10T04:21:26;98205.63;;;18.30;75.97
78309;BME280;67566;42.022;21.356;2023-06-10T04:23:52;98211.94;;;18.41;76.89
78309;BME280;67566;42.022;21.356;2023-06-10T04:26:17;98213.25;;;18.51;76.05
78309;BME280;67566;42.022;21.356;2023-06-10T04:28:43;98210.72;;;18.62;75.41
78309;BME280;67566;42.022;21.356;2023-06-10T04:31:09;98208.53;;;18.71;74.55
78309;BME280;67566;42.022;21.356;2023-06-10T04:33:35;98215.66;;;18.83;74.42
78309;BME280;67566;42.022;21.356;2023-06-10T04:36:01;98208.88;;;18.93;75.51
78309;BME280;67566;42.022;21.356;2023-06-10T04:38:26;98209.72;;;19.00;74.29
78309;BME280;67566;42.022;21.356;2023-06-10T04:40:52;98206.38;;;19.11;74.42
78309;BME280;67566;42.022;21.356;2023-06-10T04:43:18;98210.06;;;19.26;74.90
78309;BME280;67566;42.022;21.356;2023-06-10T04:45:44;98210.16;;;19.36;74.64
78309;BME280;67566;42.022;21.356;2023-06-10T04:48:10;98211.44;;;19.50;73.20
78309;BME280;67566;42.022;21.356;2023-06-10T04:50:36;98222.03;;;19.66;73.48
78309;BME280;67566;42.022;21.356;2023-06-10T04:53:02;98221.09;;;19.85;72.63
78309;BME280;67566;42.022;21.356;2023-06-10T04:55:27;98203.13;;;20.03;71.80
78309;BME280;67566;42.022;21.356;2023-06-10T04:57:53;98204.34;;;20.13;71.15
78309;BME280;67566;42.022;21.356;2023-06-10T05:00:19;98212.63;;;20.31;71.36
78309;BME280;67566;42.022;21.356;2023-06-10T05:02:44;98207.69;;;20.44;70.95
78309;BME280;67566;42.022;21.356;2023-06-10T05:05:10;98199.25;;;20.52;69.46
78309;BME280;67566;42.022;21.356;2023-06-10T05:07:36;98201.69;;;20.68;69.02
78309;BME280;67566;42.022;21.356;2023-06-10T05:10:02;98194.84;;;20.85;69.30
78309;BME280;67566;42.022;21.356;2023-06-10T05:12:28;98193.75;;;21.01;68.13
78309;BME280;67566;42.022;21.356;2023-06-10T05:14:53;98198.44;;;21.11;68.75
78309;BME280;67566;42.022;21.356;2023-06-10T05:17:19;98198.88;;;21.24;67.22
78309;BME280;67566;42.022;21.356;2023-06-10T05:19:45;98197.75;;;21.28;66.77
78309;BME280;67566;42.022;21.356;2023-06-10T05:22:10;98199.31;;;21.40;67.33
78309;BME280;67566;42.022;21.356;2023-06-10T05:24:36;98193.97;;;21.55;66.38
78309;BME280;67566;42.022;21.356;2023-06-10T05:27:01;98200.94;;;21.63;66.48
78309;BME280;67566;42.022;21.356;2023-06-10T05:29:28;98202.13;;;21.73;65.36
78309;BME280;67566;42.022;21.356;2023-06-10T05:31:53;98194.41;;;21.85;65.60
78309;BME280;67566;42.022;21.356;2023-06-10T05:34:21;98192.13;;;21.95;65.42
78309;BME280;67566;42.022;21.356;2023-06-10T05:36:47;98187.06;;;22.00;64.55
78309;BME280;67566;42.022;21.356;2023-06-10T05:39:12;98190.94;;;22.03;64.69
78309;BME280;67566;42.022;21.356;2023-06-10T05:41:38;98195.97;;;22.01;64.11
78309;BME280;67566;42.022;21.356;2023-06-10T05:44:03;98188.22;;;22.03;64.79
78309;BME280;67566;42.022;21.356;2023-06-10T05:46:29;98196.34;;;22.10;64.09
78309;BME280;67566;42.022;21.356;2023-06-10T05:48:55;98183.97;;;22.20;63.45
78309;BME280;67566;42.022;21.356;2023-06-10T05:51:20;98196.00;;;22.33;63.51
78309;BME280;67566;42.022;21.356;2023-06-10T05:53:46;98197.13;;;22.47;63.54
78309;BME280;67566;42.022;21.356;2023-06-10T05:56:12;98193.66;;;22.53;62.55
78309;BME280;67566;42.022;21.356;2023-06-10T05:58:38;98197.13;;;22.50;62.95
78309;BME280;67566;42.022;21.356;2023-06-10T06:01:03;98202.94;;;22.63;63.21
78309;BME280;67566;42.022;21.356;2023-06-10T06:03:29;98198.28;;;22.67;62.03
78309;BME280;67566;42.022;21.356;2023-06-10T06:05:54;98200.59;;;22.72;62.21
78309;BME280;67566;42.022;21.356;2023-06-10T06:08:20;98193.59;;;22.86;61.97
78309;BME280;67566;42.022;21.356;2023-06-10T06:10:46;98190.44;;;22.91;62.00
78309;BME280;67566;42.022;21.356;2023-06-10T06:13:13;98180.72;;;23.04;61.35
78309;BME280;67566;42.022;21.356;2023-06-10T06:15:38;98185.38;;;23.07;60.29
78309;BME280;67566;42.022;21.356;2023-06-10T06:18:04;98185.72;;;23.16;60.48
78309;BME280;67566;42.022;21.356;2023-06-10T06:20:29;98179.09;;;23.25;59.71
78309;BME280;67566;42.022;21.356;2023-06-10T06:22:55;98182.97;;;23.24;58.32
78309;BME280;67566;42.022;21.356;2023-06-10T06:25:20;98179.97;;;23.07;58.11
78309;BME280;67566;42.022;21.356;2023-06-10T06:27:48;98176.84;;;23.09;57.93
78309;BME280;67566;42.022;21.356;2023-06-10T06:30:13;98179.16;;;23.14;58.33
78309;BME280;67566;42.022;21.356;2023-06-10T06:32:39;98174.84;;;23.20;58.53
78309;BME280;67566;42.022;21.356;2023-06-10T06:35:05;98178.25;;;23.42;57.79
78309;BME280;67566;42.022;21.356;2023-06-10T06:37:33;98175.06;;;23.54;57.35
78309;BME280;67566;42.022;21.356;2023-06-10T06:39:58;98172.69;;;23.60;57.69
78309;BME280;67566;42.022;21.356;2023-06-10T06:42:24;98171.44;;;23.75;57.23
78309;BME280;67566;42.022;21.356;2023-06-10T06:44:49;98166.00;;;23.75;57.21
78309;BME280;67566;42.022;21.356;2023-06-10T06:47:15;98172.09;;;23.98;56.52
78309;BME280;67566;42.022;21.356;2023-06-10T06:49:44;98168.41;;;24.19;56.24
78309;BME280;67566;42.022;21.356;2023-06-10T06:52:10;98168.59;;;24.39;56.23
78309;BME280;67566;42.022;21.356;2023-06-10T06:54:35;98170.09;;;24.47;56.36
78309;BME280;67566;42.022;21.356;2023-06-10T06:57:01;98172.75;;;24.54;56.46
78309;BME280;67566;42.022;21.356;2023-06-10T06:59:27;98171.84;;;24.68;55.42
78309;BME280;67566;42.022;21.356;2023-06-10T07:01:52;98166.59;;;24.84;53.98
78309;BME280;67566;42.022;21.356;2023-06-10T07:04:19;98169.47;;;24.70;53.40
78309;BME280;67566;42.022;21.356;2023-06-10T07:06:47;98162.75;;;24.82;54.30
78309;BME280;67566;42.022;21.356;2023-06-10T07:09:13;98166.81;;;25.01;55.12
78309;BME280;67566;42.022;21.356;2023-06-10T07:11:38;98151.13;;;25.09;54.20
78309;BME280;67566;42.022;21.356;2023-06-10T07:14:04;98161.44;;;25.24;54.11
78309;BME280;67566;42.022;21.356;2023-06-10T07:16:29;98153.25;;;25.24;52.83
78309;BME280;67566;42.022;21.356;2023-06-10T07:18:57;98150.72;;;25.10;53.25
78309;BME280;67566;42.022;21.356;2023-06-10T07:21:23;98146.84;;;25.11;53.16
78309;BME280;67566;42.022;21.356;2023-06-10T07:23:49;98147.59;;;25.12;53.75
78309;BME280;67566;42.022;21.356;2023-06-10T07:26:17;98148.25;;;25.19;52.60
78309;BME280;67566;42.022;21.356;2023-06-10T07:28:43;98148.63;;;25.25;52.66
78309;BME280;67566;42.022;21.356;2023-06-10T07:31:08;98138.69;;;25.38;53.24
78309;BME280;67566;42.022;21.356;2023-06-10T07:33:34;98133.03;;;25.53;53.24
78309;BME280;67566;42.022;21.356;2023-06-10T07:36:00;98125.34;;;25.71;52.57
78309;BME280;67566;42.022;21.356;2023-06-10T07:38:26;98137.19;;;25.61;51.47
78309;BME280;67566;42.022;21.356;2023-06-10T07:40:51;98142.03;;;25.50;53.22
78309;BME280;67566;42.022;21.356;2023-06-10T07:43:18;98127.09;;;25.58;52.56
78309;BME280;67566;42.022;21.356;2023-06-10T07:45:44;98128.91;;;25.68;52.22
78309;BME280;67566;42.022;21.356;2023-06-10T07:48:10;98132.94;;;25.84;52.15
78309;BME280;67566;42.022;21.356;2023-06-10T07:50:35;98122.56;;;26.02;52.04
78309;BME280;67566;42.022;21.356;2023-06-10T07:53:01;98122.06;;;26.07;51.59
78309;BME280;67566;42.022;21.356;2023-06-10T07:55:27;98110.91;;;25.98;52.31
78309;BME280;67566;42.022;21.356;2023-06-10T07:57:53;98113.72;;;25.91;51.87
78309;BME280;67566;42.022;21.356;2023-06-10T08:00:19;98115.47;;;25.81;51.87
78309;BME280;67566;42.022;21.356;2023-06-10T08:02:46;98115.28;;;25.92;52.06
78309;BME280;67566;42.022;21.356;2023-06-10T08:05:11;98114.72;;;26.04;51.85
78309;BME280;67566;42.022;21.356;2023-06-10T08:07:37;98100.94;;;26.11;51.92
78309;BME280;67566;42.022;21.356;2023-06-10T08:10:03;98100.00;;;26.22;51.02
78309;BME280;67566;42.022;21.356;2023-06-10T08:12:29;98099.91;;;26.25;50.44
78309;BME280;67566;42.022;21.356;2023-06-10T08:14:55;98096.63;;;26.34;50.28
78309;BME280;67566;42.022;21.356;2023-06-10T08:17:21;98093.44;;;26.39;50.38
78309;BME280;67566;42.022;21.356;2023-06-10T08:19:47;98100.91;;;26.55;51.16
78309;BME280;67566;42.022;21.356;2023-06-10T08:22:12;98088.41;;;26.78;50.95
78309;BME280;67566;42.022;21.356;2023-06-10T08:24:40;98089.50;;;26.80;49.66
78309;BME280;67566;42.022;21.356;2023-06-10T08:27:06;98093.06;;;26.97;49.91
78309;BME280;67566;42.022;21.356;2023-06-10T08:29:31;98086.59;;;27.07;50.23
78309;BME280;67566;42.022;21.356;2023-06-10T08:31:57;98091.31;;;27.23;49.86
78309;BME280;67566;42.022;21.356;2023-06-10T08:34:23;98082.97;;;27.30;49.30
78309;BME280;67566;42.022;21.356;2023-06-10T08:36:49;98086.28;;;27.22;48.81
78309;BME280;67566;42.022;21.356;2023-06-10T08:39:18;98084.31;;;27.22;49.69
78309;BME280;67566;42.022;21.356;2023-06-10T08:42:00;98078.91;;;27.39;49.93
78309;BME280;67566;42.022;21.356;2023-06-10T08:44:29;98073.78;;;27.41;49.66
78309;BME280;67566;42.022;21.356;2023-06-10T08:47:00;98072.13;;;27.43;49.27
78309;BME280;67566;42.022;21.356;2023-06-10T08:49:27;98072.31;;;27.53;49.61
78309;BME280;67566;42.022;21.356;2023-06-10T08:51:58;98068.38;;;27.54;48.31
78309;BME280;67566;42.022;21.356;2023-06-10T08:54:27;98069.50;;;27.56;49.25
78309;BME280;67566;42.022;21.356;2023-06-10T08:56:55;98062.06;;;27.73;48.87
78309;BME280;67566;42.022;21.356;2023-06-10T08:59:23;98060.69;;;27.98;48.37
78309;BME280;67566;42.022;21.356;2023-06-10T09:01:50;98056.53;;;28.06;48.58
78309;BME280;67566;42.022;21.356;2023-06-10T09:04:17;98057.25;;;28.23;47.98
78309;BME280;67566;42.022;21.356;2023-06-10T09:06:44;98053.78;;;28.22;46.64
78309;BME280;67566;42.022;21.356;2023-06-10T09:09:09;98048.84;;;28.01;46.89
78309;BME280;67566;42.022;21.356;2023-06-10T09:11:37;98050.53;;;28.11;47.53
78309;BME280;67566;42.022;21.356;2023-06-10T09:14:03;98045.66;;;28.19;48.07
78309;BME280;67566;42.022;21.356;2023-06-10T09:16:28;98042.94;;;28.32;47.29
78309;BME280;67566;42.022;21.356;2023-06-10T09:18:54;98038.00;;;28.27;45.81
78309;BME280;67566;42.022;21.356;2023-06-10T09:21:23;98032.75;;;28.32;46.26
78309;BME280;67566;42.022;21.356;2023-06-10T09:23:49;98040.75;;;28.56;45.87
78309;BME280;67566;42.022;21.356;2023-06-10T09:26:15;98029.34;;;28.70;46.26
78309;BME280;67566;42.022;21.356;2023-06-10T09:29:06;98021.91;;;28.96;45.75
78309;BME280;67566;42.022;21.356;2023-06-10T09:31:40;98030.34;;;28.76;43.94
78309;BME280;67566;42.022;21.356;2023-06-10T09:34:12;98026.50;;;28.87;45.25
78309;BME280;67566;42.022;21.356;2023-06-10T09:36:39;98021.56;;;29.07;45.31
78309;BME280;67566;42.022;21.356;2023-06-10T09:39:13;98012.03;;;29.12;44.27
78309;BME280;67566;42.022;21.356;2023-06-10T09:41:42;98007.56;;;29.05;44.21
78309;BME280;67566;42.022;21.356;2023-06-10T09:44:18;98012.47;;;29.23;43.89
78309;BME280;67566;42.022;21.356;2023-06-10T09:46:48;98003.50;;;28.84;44.42
78309;BME280;67566;42.022;21.356;2023-06-10T09:49:16;97998.47;;;28.70;45.53
78309;BME280;67566;42.022;21.356;2023-06-10T09:51:54;97999.44;;;28.89;45.10
78309;BME280;67566;42.022;21.356;2023-06-10T09:54:21;97993.09;;;28.79;45.29
78309;BME280;67566;42.022;21.356;2023-06-10T09:56:48;97991.53;;;28.65;44.84
78309;BME280;67566;42.022;21.356;2023-06-10T09:59:14;98001.16;;;28.15;45.69
78309;BME280;67566;42.022;21.356;2023-06-10T10:01:40;98001.69;;;27.80;46.35
78309;BME280;67566;42.022;21.356;2023-06-10T10:04:06;98003.25;;;27.65;45.86
78309;BME280;67566;42.022;21.356;2023-06-10T10:06:31;97996.31;;;27.60;46.68
78309;BME280;67566;42.022;21.356;2023-06-10T10:08:57;97993.16;;;27.62;46.50
78309;BME280;67566;42.022;21.356;2023-06-10T10:11:23;98000.28;;;27.88;44.73
78309;BME280;67566;42.022;21.356;2023-06-10T10:13:52;97989.75;;;28.03;45.25
78309;BME280;67566;42.022;21.356;2023-06-10T10:18:56;97975.69;;;28.31;45.10
78309;BME280;67566;42.022;21.356;2023-06-10T10:21:27;97977.75;;;28.56;44.49
78309;BME280;67566;42.022;21.356;2023-06-10T10:26:25;97968.41;;;28.92;43.73
78309;BME280;67566;42.022;21.356;2023-06-10T10:29:07;97963.16;;;28.97;44.16
78309;BME280;67566;42.022;21.356;2023-06-10T10:31:36;97959.97;;;29.12;43.66
78309;BME280;67566;42.022;21.356;2023-06-10T10:34:06;97958.75;;;29.26;42.67
78309;BME280;67566;42.022;21.356;2023-06-10T10:36:32;97964.56;;;29.15;42.21
78309;BME280;67566;42.022;21.356;2023-06-10T10:38:58;97964.75;;;29.33;41.22
78309;BME280;67566;42.022;21.356;2023-06-10T10:41:28;97958.22;;;29.53;40.87
78309;BME280;67566;42.022;21.356;2023-06-10T10:43:55;97963.06;;;29.84;41.07
78309;BME280;67566;42.022;21.356;2023-06-10T10:46:21;97956.38;;;30.07;41.10
78309;BME280;67566;42.022;21.356;2023-06-10T10:48:52;97946.03;;;30.11;40.12
78309;BME280;67566;42.022;21.356;2023-06-10T10:51:23;97944.22;;;30.17;39.56
78309;BME280;67566;42.022;21.356;2023-06-10T10:54:35;97939.97;;;30.16;40.13
78309;BME280;67566;42.022;21.356;2023-06-10T10:57:20;97939.34;;;30.21;40.45
78309;BME280;67566;42.022;21.356;2023-06-10T10:59:52;97932.38;;;29.98;40.17
78309;BME280;67566;42.022;21.356;2023-06-10T11:02:19;97936.31;;;29.75;40.55
78309;BME280;67566;42.022;21.356;2023-06-10T11:04:57;97933.09;;;29.54;41.06
78309;BME280;67566;42.022;21.356;2023-06-10T11:07:25;97927.53;;;29.45;40.77
78309;BME280;67566;42.022;21.356;2023-06-10T11:10:11;97924.47;;;29.43;39.92
78309;BME280;67566;42.022;21.356;2023-06-10T11:12:54;97921.00;;;29.30;39.51
78309;BME280;67566;42.022;21.356;2023-06-10T11:15:37;97914.38;;;29.40;40.25
78309;BME280;67566;42.022;21.356;2023-06-10T11:31:21;97886.53;;;29.64;35.71
78309;BME280;67566;42.022;21.356;2023-06-10T11:33:48;97878.06;;;29.71;36.25
78309;BME280;67566;42.022;21.356;2023-06-10T11:36:17;97872.81;;;29.86;36.04
78309;BME280;67566;42.022;21.356;2023-06-10T11:38:43;97873.72;;;30.14;36.38
78309;BME280;67566;42.022;21.356;2023-06-10T11:41:11;97878.44;;;30.36;35.52
78309;BME280;67566;42.022;21.356;2023-06-10T11:43:40;97877.00;;;30.31;34.13
78309;BME280;67566;42.022;21.356;2023-06-10T11:46:08;97870.28;;;30.63;35.39
78309;BME280;67566;42.022;21.356;2023-06-10T11:48:33;97867.13;;;30.83;34.83
78309;BME280;67566;42.022;21.356;2023-06-10T11:50:59;97861.84;;;30.98;35.81
78309;BME280;67566;42.022;21.356;2023-06-10T11:53:25;97860.75;;;31.05;33.91
78309;BME280;67566;42.022;21.356;2023-06-10T11:55:51;97861.22;;;31.13;35.09
78309;BME280;67566;42.022;21.356;2023-06-10T11:58:21;97855.06;;;30.81;33.74
78309;BME280;67566;42.022;21.356;2023-06-10T12:00:51;97850.19;;;30.85;33.37
78309;BME280;67566;42.022;21.356;2023-06-10T12:03:19;97860.28;;;31.06;34.43
78309;BME280;67566;42.022;21.356;2023-06-10T12:06:04;97848.69;;;30.93;34.81
78309;BME280;67566;42.022;21.356;2023-06-10T12:08:31;97848.84;;;30.99;34.24
78309;BME280;67566;42.022;21.356;2023-06-10T12:10:57;97854.78;;;31.06;33.95
78309;BME280;67566;42.022;21.356;2023-06-10T12:13:25;97860.13;;;30.92;34.01
78309;BME280;67566;42.022;21.356;2023-06-10T12:15:51;97852.31;;;30.81;32.82
78309;BME280;67566;42.022;21.356;2023-06-10T12:18:21;97847.44;;;30.85;34.14
78309;BME280;67566;42.022;21.356;2023-06-10T12:20:47;97845.19;;;31.02;34.93
78309;BME280;67566;42.022;21.356;2023-06-10T12:23:14;97836.47;;;31.13;32.84
78309;BME280;67566;42.022;21.356;2023-06-10T12:25:49;97840.13;;;31.37;33.60
78309;BME280;67566;42.022;21.356;2023-06-10T12:28:16;97826.69;;;31.58;34.42
78309;BME280;67566;42.022;21.356;2023-06-10T12:30:43;97839.22;;;31.22;33.41
78309;BME280;67566;42.022;21.356;2023-06-10T12:33:21;97831.84;;;30.82;33.36
78309;BME280;67566;42.022;21.356;2023-06-10T12:35:56;97831.81;;;30.63;35.54
78309;BME280;67566;42.022;21.356;2023-06-10T12:38:25;97831.50;;;30.61;36.93
78309;BME280;67566;42.022;21.356;2023-06-10T12:40:54;97838.03;;;30.45;35.75
78309;BME280;67566;42.022;21.356;2023-06-10T12:43:22;97837.88;;;30.49;35.62
78309;BME280;67566;42.022;21.356;2023-06-10T12:45:49;97833.75;;;30.44;35.79
78309;BME280;67566;42.022;21.356;2023-06-10T12:48:19;97840.00;;;30.36;36.56
78309;BME280;67566;42.022;21.356;2023-06-10T12:50:52;97822.78;;;30.13;35.83
78309;BME280;67566;42.022;21.356;2023-06-10T12:53:18;97819.22;;;30.03;36.30
78309;BME280;67566;42.022;21.356;2023-06-10T12:55:45;97829.56;;;29.90;36.59
78309;BME280;67566;42.022;21.356;2023-06-10T12:58:11;97827.91;;;30.02;36.76
78309;BME280;67566;42.022;21.356;2023-06-10T13:00:38;97821.84;;;30.07;37.25
78309;BME280;67566;42.022;21.356;2023-06-10T13:03:05;97823.53;;;30.04;36.49
78309;BME280;67566;42.022;21.356;2023-06-10T13:05:35;97827.66;;;29.78;36.06
78309;BME280;67566;42.022;21.356;2023-06-10T13:08:04;97833.59;;;29.76;35.81
78309;BME280;67566;42.022;21.356;2023-06-10T13:10:30;97820.75;;;29.73;37.40
78309;BME280;67566;42.022;21.356;2023-06-10T13:12:55;97815.84;;;29.68;37.64